createdAt,value
2022-12-19T00:00:13.975Z,19.00
2022-12-19T00:00:48.900Z,16.73
2022-12-19T00:01:27.627Z,19.00
2022-12-19T00:02:03.753Z,12.27
2022-12-19T00:02:36.207Z,22.52
2022-12-19T00:03:08.642Z,21.40
2022-12-19T00:03:43.392Z,20.45
2022-12-19T00:04:16.267Z,27.20
2022-12-19T00:04:48.446Z,36.17
2022-12-19T00:05:23.124Z,17.88
2022-12-19T00:05:56.798Z,20.75
2022-12-19T00:06:30.436Z,18.65
2022-12-19T00:07:05.222Z,20.48
2022-12-19T00:07:37.410Z,22.80
2022-12-19T00:08:16.979Z,12.27
2022-12-19T00:08:54.327Z,21.92
2022-12-19T00:09:27.017Z,15.45
2022-12-19T00:09:59.165Z,22.02
2022-12-19T00:10:33.834Z,18.92
2022-12-19T00:11:06.087Z,26.60
2022-12-19T00:11:41.327Z,17.80
2022-12-19T00:12:19.027Z,17.80
2022-12-19T00:12:51.546Z,15.57
2022-12-19T00:13:27.317Z,16.75
2022-12-19T00:14:01.670Z,17.83
2022-12-19T00:14:33.762Z,18.85
2022-12-19T00:15:09.954Z,21.63
2022-12-19T00:15:42.069Z,17.05
2022-12-19T00:16:17.423Z,26.58
2022-12-19T00:16:53.755Z,33.35
2022-12-19T00:17:28.673Z,36.35
2022-12-19T00:18:00.903Z,27.15
2022-12-19T00:18:36.534Z,25.58
2022-12-19T00:19:11.464Z,24.75
2022-12-19T00:19:43.629Z,23.73
2022-12-19T00:20:18.587Z,23.02
2022-12-19T00:20:58.991Z,21.15
2022-12-19T00:21:35.853Z,17.27
2022-12-19T00:22:11.127Z,23.85
2022-12-19T00:22:43.498Z,23.70
2022-12-19T00:23:15.760Z,58.38
2022-12-19T00:23:50.894Z,21.55
2022-12-19T00:24:23.120Z,17.38
2022-12-19T00:24:55.210Z,23.25
2022-12-19T00:25:27.312Z,15.65
2022-12-19T00:26:10.981Z,23.27
2022-12-19T00:26:46.074Z,19.42
2022-12-19T00:27:18.221Z,15.57
2022-12-19T00:27:54.428Z,18.63
2022-12-19T00:28:27.266Z,10.02
2022-12-19T00:29:01.814Z,18.35
2022-12-19T00:29:36.683Z,16.40
2022-12-19T00:30:11.602Z,13.18
2022-12-19T00:30:44.070Z,16.85
2022-12-19T00:31:20.367Z,23.35
2022-12-19T00:31:52.601Z,17.95
2022-12-19T00:32:24.727Z,17.40
2022-12-19T00:33:02.084Z,20.02
2022-12-19T00:33:34.969Z,16.73
2022-12-19T00:34:10.172Z,18.50
2022-12-19T00:34:47.761Z,17.48
2022-12-19T00:35:19.904Z,23.20
2022-12-19T00:35:57.790Z,21.85
2022-12-19T00:36:34.072Z,18.38
2022-12-19T00:37:06.186Z,17.50
2022-12-19T00:37:42.818Z,21.02
2022-12-19T00:38:24.143Z,15.68
2022-12-19T00:38:58.355Z,17.38
2022-12-19T00:39:30.711Z,16.02
2022-12-19T00:40:05.449Z,18.27
2022-12-19T00:40:37.619Z,16.52
2022-12-19T00:41:14.992Z,16.35
2022-12-19T00:41:49.698Z,17.58
2022-12-19T00:42:21.830Z,16.58
2022-12-19T00:42:54.185Z,21.48
2022-12-19T00:43:27.470Z,16.55
2022-12-19T00:44:03.777Z,14.77
2022-12-19T00:44:36.985Z,17.55
2022-12-19T00:45:09.920Z,16.40
2022-12-19T00:45:44.607Z,19.25
2022-12-19T00:46:16.845Z,19.50
2022-12-19T00:46:52.393Z,20.00
2022-12-19T00:47:27.804Z,17.83
2022-12-19T00:48:02.503Z,22.08
2022-12-19T00:48:35.304Z,11.98
2022-12-19T00:49:11.206Z,15.80
2022-12-19T00:49:43.380Z,17.92
2022-12-19T00:50:16.586Z,20.88
2022-12-19T00:50:52.588Z,21.23
2022-12-19T00:51:26.584Z,22.65
2022-12-19T00:52:01.608Z,25.23
2022-12-19T00:52:35.675Z,16.00
2022-12-19T00:53:07.817Z,21.48
2022-12-19T00:53:42.649Z,25.40
2022-12-19T00:54:15.448Z,20.95
2022-12-19T00:54:47.979Z,31.55
2022-12-19T00:55:22.708Z,30.55
2022-12-19T00:55:55.098Z,19.13
2022-12-19T00:56:28.766Z,18.95
2022-12-19T00:57:03.469Z,21.38
2022-12-19T00:57:35.574Z,18.67
2022-12-19T00:58:07.664Z,35.20
2022-12-19T14:56:03.897Z,55.00
2022-12-19T14:56:46.653Z,71.07
2022-12-19T14:58:50.636Z,60.15
2022-12-19T14:58:52.658Z,78.40
2022-12-19T14:59:37.410Z,71.57
2022-12-19T15:01:08.091Z,86.80
2022-12-19T15:01:26.810Z,71.80
2022-12-19T15:02:03.793Z,85.35
2022-12-19T15:02:39.603Z,95.43
2022-12-19T15:03:19.614Z,96.97
2022-12-19T15:04:47.813Z,99.68
2022-12-19T15:05:02.402Z,108.15
2022-12-19T15:05:37.490Z,93.60
2022-12-19T15:06:19.897Z,86.50
2022-12-19T15:07:17.556Z,83.68
2022-12-19T15:07:53.012Z,104.20
2022-12-19T15:09:02.441Z,120.55
2022-12-19T15:11:00.652Z,78.95
2022-12-19T15:11:04.630Z,82.07
2022-12-19T15:14:48.216Z,95.95
2022-12-19T15:14:57.149Z,79.20
2022-12-19T15:14:59.202Z,105.88
2022-12-19T15:15:41.364Z,70.45
2022-12-19T15:16:27.779Z,81.32
2022-12-19T15:17:04.266Z,83.28
2022-12-19T15:17:47.933Z,66.55
2022-12-19T15:18:22.806Z,105.13
2022-12-19T15:18:59.921Z,83.55
2022-12-19T15:19:32.033Z,77.47
2022-12-19T15:20:04.822Z,76.78
2022-12-19T15:20:39.584Z,62.03
2022-12-19T15:21:13.386Z,88.57
2022-12-19T15:21:48.193Z,107.03
2022-12-19T15:22:21.187Z,109.60
2022-12-19T15:22:55.892Z,69.65
2022-12-19T15:23:29.162Z,86.55
2022-12-19T15:24:03.901Z,50.15
2022-12-19T15:24:35.982Z,98.03
2022-12-19T15:25:28.503Z,79.13
2022-12-19T15:26:14.250Z,96.05
2022-12-19T15:26:50.557Z,100.60
2022-12-19T15:27:25.282Z,65.13
2022-12-19T15:27:57.385Z,54.88
2022-12-19T15:28:39.791Z,123.15
2022-12-19T15:29:18.193Z,95.07
2022-12-19T15:29:56.497Z,94.10
2022-12-19T15:30:34.764Z,96.75
2022-12-19T15:31:16.569Z,80.80
2022-12-19T15:31:48.977Z,100.63
2022-12-19T15:32:23.679Z,104.88
2022-12-19T15:32:55.763Z,138.55
2022-12-19T15:33:30.812Z,93.45
2022-12-19T15:34:34.296Z,98.13
2022-12-19T15:35:13.352Z,73.15
2022-12-19T15:35:45.461Z,106.60
2022-12-19T15:36:20.320Z,87.70
2022-12-19T15:36:53.564Z,93.53
2022-12-19T15:37:28.232Z,102.55
2022-12-19T15:38:00.711Z,73.43
2022-12-19T15:38:35.641Z,84.15
2022-12-19T15:39:08.088Z,66.45
2022-12-19T15:39:43.053Z,90.90
2022-12-19T15:40:17.524Z,80.43
2022-12-19T15:40:52.299Z,63.05
2022-12-19T15:41:27.539Z,94.55
2022-12-19T15:42:03.853Z,100.13
2022-12-19T15:42:36.082Z,187.27
2022-12-19T15:43:53.264Z,59.35
2022-12-19T15:44:10.903Z,82.55
2022-12-19T15:44:47.227Z,80.20
2022-12-19T15:45:19.725Z,92.00
2022-12-19T15:46:00.183Z,82.88
2022-12-19T15:46:33.062Z,78.90
2022-12-19T15:47:15.658Z,76.03
2022-12-19T15:47:49.130Z,89.03
2022-12-19T15:48:25.024Z,76.40
2022-12-19T15:48:57.130Z,62.92
2022-12-19T15:49:32.979Z,108.60
2022-12-19T15:50:16.504Z,66.88
2022-12-19T15:50:51.172Z,114.80
2022-12-19T15:51:23.340Z,158.32
2022-12-19T15:51:58.687Z,161.23
2022-12-19T15:52:31.012Z,122.78
2022-12-19T15:53:24.467Z,85.30
2022-12-19T15:54:58.654Z,102.80
2022-12-19T15:55:04.331Z,85.53
2022-12-19T15:55:31.203Z,63.75
2022-12-19T15:56:03.565Z,113.70
2022-12-19T15:56:43.563Z,68.03
2022-12-19T15:57:25.691Z,65.22
2022-12-19T15:58:04.092Z,84.82
2022-12-19T15:58:36.270Z,78.45
2022-12-19T15:59:28.623Z,58.45
2022-12-19T16:00:08.561Z,102.50
2022-12-19T16:00:46.074Z,67.18
2022-12-19T16:01:18.585Z,77.88
2022-12-19T16:01:53.686Z,103.35
2022-12-19T16:02:42.699Z,92.57
2022-12-19T16:03:24.975Z,74.20
2022-12-19T16:04:00.726Z,73.47
2022-12-19T16:04:33.802Z,93.38
2022-12-19T16:05:09.621Z,79.28
2022-12-19T16:05:42.055Z,80.35
2022-12-19T16:06:17.675Z,76.47
2022-12-19T16:06:49.807Z,102.53
2022-12-19T16:07:26.175Z,91.40
2022-12-19T16:07:59.013Z,105.47
2022-12-19T16:08:33.772Z,88.88
2022-12-19T16:09:17.586Z,90.13
2022-12-19T16:09:53.081Z,107.05
2022-12-19T16:10:25.450Z,111.97
2022-12-19T16:11:02.215Z,76.22
2022-12-19T16:11:34.612Z,74.70
2022-12-19T16:12:13.650Z,89.97
2022-12-19T16:12:51.429Z,101.60
2022-12-19T16:13:25.864Z,141.27
2022-12-19T16:14:01.576Z,92.85
2022-12-19T16:14:33.731Z,77.25
2022-12-19T16:15:16.722Z,103.18
2022-12-19T16:16:48.459Z,88.85
2022-12-19T16:17:22.976Z,84.32
2022-12-19T16:17:59.822Z,100.32
2022-12-19T16:18:33.984Z,101.47
2022-12-19T16:19:24.907Z,104.70
2022-12-19T16:19:57.096Z,136.18
2022-12-19T16:20:34.406Z,150.90
2022-12-19T16:21:06.685Z,138.50
2022-12-19T16:21:41.399Z,100.90
2022-12-19T16:22:18.598Z,126.60
2022-12-19T16:22:53.283Z,94.18
2022-12-19T16:23:26.187Z,89.85
2022-12-19T16:23:58.360Z,104.78
2022-12-19T16:24:33.115Z,82.68
2022-12-19T16:25:06.335Z,85.20
2022-12-19T16:25:42.861Z,85.70
2022-12-19T16:26:27.638Z,125.15
2022-12-19T16:27:02.528Z,100.45
2022-12-19T16:27:35.696Z,90.63
2022-12-19T16:28:17.559Z,63.97
2022-12-19T16:28:49.845Z,78.97
2022-12-19T16:29:28.057Z,82.25
2022-12-19T16:30:18.668Z,111.40
2022-12-19T16:30:54.170Z,109.45
2022-12-19T16:31:27.811Z,108.78
2022-12-19T16:32:06.017Z,84.07
2022-12-19T16:32:38.196Z,111.10
2022-12-19T16:33:22.827Z,146.10
2022-12-19T16:33:55.507Z,105.47
2022-12-19T16:34:27.615Z,81.40
2022-12-19T16:35:02.327Z,97.88
2022-12-19T16:36:03.136Z,138.68
2022-12-19T16:36:29.500Z,86.57
2022-12-19T16:37:01.579Z,80.82
2022-12-19T16:37:36.255Z,83.10
2022-12-19T16:38:08.414Z,77.85
2022-12-19T16:38:43.122Z,87.70
2022-12-19T16:39:15.726Z,158.88
2022-12-19T16:39:50.414Z,164.70
2022-12-19T16:40:25.633Z,126.53
2022-12-19T16:41:01.673Z,72.93
2022-12-19T16:41:43.022Z,103.43
2022-12-19T16:42:19.689Z,96.35
2022-12-19T16:43:03.421Z,81.68
2022-12-19T16:43:42.009Z,123.53
2022-12-19T16:44:19.508Z,50.30
2022-12-19T16:44:54.551Z,107.90
2022-12-19T16:45:27.405Z,95.85
2022-12-19T16:46:02.504Z,107.85
2022-12-19T16:46:35.238Z,148.40
2022-12-19T16:47:14.544Z,96.32
2022-12-19T16:47:50.125Z,92.68
2022-12-19T16:48:24.133Z,158.50
2022-12-19T16:48:56.568Z,84.10
2022-12-19T16:49:33.538Z,92.93
2022-12-19T16:50:15.836Z,86.40
2022-12-19T16:50:51.282Z,99.28
2022-12-19T16:51:25.213Z,139.70
2022-12-19T16:52:00.570Z,102.85
2022-12-19T16:52:37.454Z,121.88
2022-12-19T16:53:12.832Z,75.65
2022-12-19T16:53:47.610Z,91.70
2022-12-19T16:54:20.220Z,112.95
2022-12-19T16:54:54.957Z,96.22
2022-12-19T16:55:27.473Z,85.63
2022-12-19T16:56:02.796Z,87.47
2022-12-19T16:56:37.215Z,119.05
2022-12-19T16:57:18.945Z,85.40
2022-12-19T16:57:59.012Z,90.15
2022-12-19T16:58:31.324Z,71.60
2022-12-19T16:59:10.439Z,84.30
2022-12-19T16:59:45.197Z,99.65
2022-12-19T17:00:21.885Z,82.05
2022-12-19T17:00:57.759Z,70.03
2022-12-19T17:01:30.909Z,74.22
2022-12-19T17:02:30.336Z,50.30
2022-12-19T17:03:08.668Z,77.72
2022-12-19T17:03:46.506Z,79.50
2022-12-19T17:04:20.475Z,81.05
2022-12-19T17:04:55.143Z,59.75
2022-12-19T17:05:29.406Z,98.65
2022-12-19T17:06:04.244Z,97.22
2022-12-19T17:06:36.392Z,85.60
2022-12-19T17:07:13.818Z,106.70
2022-12-19T17:07:46.164Z,91.20
2022-12-19T17:08:21.820Z,89.22
2022-12-19T17:08:54.047Z,87.18
2022-12-19T17:09:26.154Z,83.80
2022-12-19T17:10:00.995Z,65.22
2022-12-19T17:10:34.225Z,87.85
2022-12-19T17:11:10.208Z,72.47
2022-12-19T17:11:45.650Z,85.18
2022-12-19T17:12:21.167Z,71.55
2022-12-19T17:12:54.824Z,82.72
2022-12-19T17:13:29.723Z,89.80
2022-12-19T17:14:05.005Z,84.65
2022-12-19T17:14:39.690Z,91.93
2022-12-19T17:15:22.959Z,88.63
2022-12-19T17:15:58.026Z,70.00
2022-12-19T17:16:31.257Z,72.10
2022-12-19T17:17:06.193Z,79.95
2022-12-19T17:17:41.012Z,74.05
2022-12-19T17:18:19.240Z,81.88
2022-12-19T17:18:51.518Z,75.13
2022-12-19T17:19:30.031Z,62.03
2022-12-19T17:20:02.149Z,80.25
2022-12-19T17:20:42.443Z,75.15
2022-12-19T17:21:17.028Z,68.47
2022-12-19T17:21:52.386Z,80.50
2022-12-19T17:22:24.515Z,78.28
2022-12-19T17:22:56.748Z,89.32
2022-12-19T17:23:33.202Z,90.75
2022-12-19T17:24:10.645Z,78.30
2022-12-19T17:24:46.697Z,75.07
2022-12-19T17:25:21.441Z,79.95
2022-12-19T17:25:54.868Z,81.50
2022-12-19T17:26:29.550Z,107.35
2022-12-19T17:27:01.727Z,80.43
2022-12-19T17:27:36.477Z,112.90
2022-12-19T17:28:08.685Z,89.43
2022-12-19T17:28:43.630Z,92.80
2022-12-19T17:29:16.055Z,80.65
2022-12-19T17:29:48.161Z,59.47
2022-12-19T17:30:23.329Z,75.78
2022-12-19T17:30:57.851Z,76.78
2022-12-19T17:31:38.083Z,96.03
2022-12-19T17:32:59.169Z,90.78
2022-12-19T17:33:35.325Z,110.45
2022-12-19T17:34:15.673Z,84.60
2022-12-19T17:34:47.815Z,114.60
2022-12-19T17:35:28.021Z,92.20
2022-12-19T17:36:00.909Z,84.65
2022-12-19T17:36:37.842Z,141.45
2022-12-19T17:37:16.666Z,131.93
2022-12-19T17:37:54.563Z,68.18
2022-12-19T17:38:27.395Z,79.25
2022-12-19T17:39:02.332Z,67.47
2022-12-19T17:39:35.014Z,74.78
2022-12-19T17:40:16.329Z,71.35
2022-12-19T17:40:51.095Z,90.80
2022-12-19T17:41:23.191Z,107.95
2022-12-19T17:42:00.345Z,64.40
2022-12-19T17:42:37.274Z,73.43
2022-12-19T17:43:13.034Z,80.03
2022-12-19T17:43:45.228Z,65.43
2022-12-19T17:44:18.205Z,70.10
2022-12-19T17:44:53.290Z,80.57
2022-12-19T17:45:27.591Z,126.65
2022-12-19T17:46:02.347Z,81.32
2022-12-19T17:46:37.319Z,96.25
2022-12-19T17:47:16.165Z,86.78
2022-12-19T17:47:49.416Z,69.40
2022-12-19T17:48:31.371Z,79.50
2022-12-19T17:49:03.963Z,92.28
2022-12-19T17:49:38.884Z,87.93
2022-12-19T17:50:21.566Z,77.57
2022-12-19T17:50:57.157Z,77.50
2022-12-19T17:51:29.240Z,84.90
2022-12-19T17:52:01.335Z,68.10
2022-12-19T17:52:38.421Z,71.35
2022-12-19T17:53:13.982Z,75.07
2022-12-19T17:53:49.588Z,78.22
2022-12-19T17:54:22.381Z,78.22
2022-12-19T17:54:57.203Z,66.85
2022-12-19T17:55:30.785Z,71.97
2022-12-19T17:56:05.456Z,89.03
2022-12-19T17:56:37.619Z,79.18
2022-12-19T17:57:15.834Z,101.38
2022-12-19T17:57:48.234Z,84.65
2022-12-19T17:58:22.884Z,71.07
2022-12-19T17:58:56.444Z,61.20
2022-12-19T17:59:28.761Z,72.97
2022-12-19T18:00:04.364Z,66.30
2022-12-19T18:00:47.163Z,80.40
2022-12-19T18:01:23.854Z,93.28
2022-12-19T18:01:56.138Z,84.18
2022-12-19T18:02:31.972Z,67.50
2022-12-19T18:03:10.282Z,99.68
2022-12-19T18:03:48.167Z,67.20
2022-12-19T18:04:21.253Z,88.13
2022-12-19T18:04:58.429Z,72.53
2022-12-19T18:05:33.874Z,108.40
2022-12-19T18:06:12.200Z,96.38
2022-12-19T18:06:45.315Z,78.47
2022-12-19T18:07:20.771Z,82.50
2022-12-19T18:07:53.345Z,64.15
2022-12-19T18:08:27.364Z,65.03
2022-12-19T18:09:03.258Z,99.03
2022-12-19T18:09:35.346Z,91.75
2022-12-19T18:10:14.704Z,79.10
2022-12-19T18:10:49.542Z,81.40
2022-12-19T18:11:24.533Z,92.63
2022-12-19T18:11:59.180Z,75.88
2022-12-19T18:12:31.278Z,109.85
2022-12-19T18:13:05.685Z,73.15
2022-12-19T18:13:40.360Z,59.45
2022-12-19T18:14:12.641Z,83.50
2022-12-19T18:14:47.308Z,72.35
2022-12-19T18:15:20.732Z,70.35
2022-12-19T18:15:56.278Z,55.67
2022-12-19T18:16:31.982Z,108.88
2022-12-19T18:17:05.444Z,81.78
2022-12-19T18:17:41.396Z,59.63
2022-12-19T18:18:15.868Z,82.28
2022-12-19T18:18:53.281Z,72.90
2022-12-19T18:19:30.606Z,91.47
2022-12-19T18:20:06.011Z,65.55
2022-12-19T18:20:38.339Z,94.18
2022-12-19T18:21:18.079Z,67.32
2022-12-19T18:21:50.385Z,65.65
2022-12-19T18:22:25.064Z,80.68
2022-12-19T18:22:57.493Z,86.15
